Greenleaf, Kansas
Current Conditions -  °F | °C
As of 8:15 PM on Wednesday 22 Oct 2014 (Local Time) from KMYZ Reporting Station
Light Rain Light Rain  
Wind Chill: 70°   Ceiling: 6500
Heat Index: 70°   Visibility: 10mi
Dew Point: 55°   Wind: 10mph
Humidity: 60%   Direction: 200°SSW
Pressure: 30.04"   Gusts: NA
Location:  39.73°N, 96.98°W
Report Text: KMYZ 230115Z AUTO 20009KT 10SM -RA SCT050 OVC065 21/13 A3004 RMK AO2 LTG DSNT W
Loading
Personal Weather Stations






























Interactive Weather Map
Tropical Storm Tracking
New forecast layout! Learn more

10-Day Weather Forecast

Advertisements
Track Severe Weather on mobile